createdAt,value
2023-02-04T00:00:26.911Z,13.45
2023-02-04T00:03:16.388Z,20.40
2023-02-04T00:05:44.229Z,13.68
2023-02-04T00:08:11.880Z,16.58
2023-02-04T00:10:39.479Z,12.55
2023-02-04T00:13:07.091Z,11.97
2023-02-04T00:15:34.426Z,13.63
2023-02-04T00:18:02.050Z,13.87
2023-02-04T00:20:29.623Z,12.87
2023-02-04T00:22:57.387Z,8.70
2023-02-04T00:25:24.771Z,10.30
2023-02-04T00:27:52.341Z,11.47
2023-02-04T00:30:19.954Z,10.55
2023-02-04T00:32:47.488Z,9.18
2023-02-04T00:35:14.898Z,7.43
2023-02-04T00:37:42.440Z,10.82
2023-02-04T00:40:10.867Z,8.40
2023-02-04T00:42:38.764Z,8.05
2023-02-04T00:45:06.484Z,6.17
2023-02-04T00:47:34.104Z,9.60
2023-02-04T00:50:01.692Z,5.13
2023-02-04T00:52:29.229Z,6.18
2023-02-04T00:54:56.562Z,8.57
2023-02-04T00:57:24.151Z,6.38
2023-02-04T00:59:51.460Z,8.85
2023-02-04T01:02:19.100Z,7.25
2023-02-04T01:04:46.477Z,8.43
2023-02-04T01:07:14.123Z,8.03
2023-02-04T01:09:41.375Z,7.93
2023-02-04T01:12:08.958Z,8.35
2023-02-04T01:14:36.192Z,7.35
2023-02-04T01:17:03.907Z,10.50
2023-02-04T01:19:31.174Z,10.57
2023-02-04T01:21:58.760Z,8.77
2023-02-04T01:24:26.042Z,5.55
2023-02-04T01:26:53.642Z,7.38
2023-02-04T01:29:20.877Z,6.95
2023-02-04T01:31:48.487Z,9.18
2023-02-04T01:34:15.806Z,7.33
2023-02-04T01:36:43.352Z,4.25
2023-02-04T01:39:10.714Z,5.38
2023-02-04T01:41:38.281Z,5.37
2023-02-04T01:44:06.123Z,8.53
2023-02-04T01:46:35.779Z,6.23
2023-02-04T01:49:05.492Z,5.93
2023-02-04T01:51:33.388Z,5.72
2023-02-04T01:54:00.987Z,5.13
2023-02-04T01:56:31.361Z,6.47
2023-02-04T01:58:59.676Z,2.88
2023-02-04T02:01:42.021Z,3.33
2023-02-04T02:04:12.504Z,3.03
2023-02-04T02:06:47.282Z,3.83
2023-02-04T02:09:16.150Z,2.33
2023-02-04T02:11:44.189Z,2.97
2023-02-04T02:14:12.697Z,3.50
2023-02-04T02:16:40.491Z,3.13
2023-02-04T02:19:15.355Z,3.47
2023-02-04T02:21:58.677Z,2.53
2023-02-04T02:24:29.507Z,2.67
2023-02-04T02:27:02.204Z,4.57
2023-02-04T02:29:30.040Z,3.83
2023-02-04T02:31:59.090Z,2.23
2023-02-04T02:34:30.644Z,2.90
2023-02-04T02:37:01.236Z,3.20
2023-02-04T02:39:29.422Z,3.43
2023-02-04T02:41:59.123Z,4.17
2023-02-04T02:44:27.687Z,3.63
2023-02-04T02:46:55.662Z,2.97
2023-02-04T02:49:23.357Z,2.97
2023-02-04T02:51:51.044Z,3.47
2023-02-04T02:54:30.228Z,2.83
2023-02-04T02:56:59.459Z,2.25
2023-02-04T02:59:27.936Z,3.63
2023-02-04T03:02:02.698Z,3.97
2023-02-04T03:04:37.325Z,3.33
2023-02-04T03:07:05.282Z,2.97
2023-02-04T03:09:34.845Z,2.67
2023-02-04T03:12:05.350Z,3.57
2023-02-04T03:14:33.934Z,3.63
2023-02-04T03:17:06.074Z,3.43
2023-02-04T03:19:36.364Z,5.03
2023-02-04T03:22:06.344Z,3.63
2023-02-04T03:24:34.226Z,3.17
2023-02-04T03:27:01.944Z,2.30
2023-02-04T03:29:29.926Z,2.85
2023-02-04T03:32:00.264Z,4.17
2023-02-04T03:34:27.891Z,3.33
2023-02-04T03:36:55.549Z,2.47
2023-02-04T03:39:22.814Z,2.63
2023-02-04T03:41:50.470Z,3.13
2023-02-04T03:44:18.823Z,3.77
2023-02-04T03:46:46.424Z,5.07
2023-02-04T03:49:13.814Z,4.80
2023-02-04T03:51:41.396Z,5.30
2023-02-04T03:54:08.673Z,8.40
2023-02-04T03:56:36.288Z,4.07
2023-02-04T03:59:03.681Z,3.43
2023-02-04T04:01:31.395Z,3.23
2023-02-04T04:03:58.762Z,3.47
2023-02-04T04:06:26.376Z,2.50
2023-02-04T04:08:53.654Z,2.57
2023-02-04T04:11:22.115Z,3.73
2023-02-04T04:13:49.440Z,4.97
2023-02-04T04:16:17.054Z,5.87
2023-02-04T04:18:44.345Z,6.47
2023-02-04T04:21:11.877Z,6.95
2023-02-04T04:23:39.194Z,8.73
2023-02-04T04:26:06.729Z,6.20
2023-02-04T04:28:34.006Z,8.77
2023-02-04T04:31:01.678Z,10.87
2023-02-04T04:33:29.088Z,11.00
2023-02-04T04:35:56.677Z,11.37
2023-02-04T04:38:23.952Z,12.70
2023-02-04T04:40:51.481Z,9.80
2023-02-04T04:43:18.870Z,9.37
2023-02-04T04:45:46.498Z,10.47
2023-02-04T04:48:13.880Z,13.87
2023-02-04T04:50:41.632Z,13.10
2023-02-04T04:53:11.433Z,12.63
2023-02-04T04:55:39.657Z,12.30
2023-02-04T04:58:08.769Z,13.27
2023-02-04T05:00:36.394Z,11.33
2023-02-04T05:03:03.794Z,11.17
2023-02-04T05:05:31.536Z,10.30
2023-02-04T05:07:59.209Z,10.17
2023-02-04T05:10:26.767Z,10.77
2023-02-04T05:12:54.053Z,8.77
2023-02-04T05:15:21.716Z,10.13
2023-02-04T05:17:49.035Z,8.00
2023-02-04T05:20:16.834Z,8.47
2023-02-04T05:22:44.103Z,8.50
2023-02-04T05:25:11.707Z,13.60
2023-02-04T05:27:39.013Z,6.10
2023-02-04T05:30:07.039Z,6.07
2023-02-04T05:32:34.321Z,7.57
2023-02-04T05:35:01.893Z,6.30
2023-02-04T05:37:29.132Z,8.97
2023-02-04T05:39:56.932Z,7.30
2023-02-04T05:42:24.456Z,7.37
2023-02-04T05:44:52.025Z,8.10
2023-02-04T05:47:20.597Z,8.87
2023-02-04T05:49:48.132Z,7.63
2023-02-04T05:52:15.469Z,6.43
2023-02-04T05:54:42.987Z,9.70
2023-02-04T05:57:10.258Z,6.67
2023-02-04T05:59:37.779Z,6.50
2023-02-04T06:02:05.103Z,8.33
2023-02-04T06:04:32.708Z,7.97
2023-02-04T06:07:00.027Z,7.20
2023-02-04T06:09:27.674Z,6.73
2023-02-04T06:11:54.942Z,6.33
2023-02-04T06:14:22.461Z,7.90
2023-02-04T06:16:49.895Z,7.93
2023-02-04T06:19:17.454Z,8.40
2023-02-04T06:21:44.717Z,8.20
2023-02-04T06:24:12.326Z,9.17
2023-02-04T06:26:39.660Z,7.53
2023-02-04T06:29:07.318Z,10.17
2023-02-04T06:31:34.865Z,9.87
2023-02-04T06:34:02.470Z,9.20
2023-02-04T06:36:29.886Z,11.10
2023-02-04T06:38:58.085Z,19.57
2023-02-04T06:41:25.365Z,20.37
2023-02-04T06:43:52.982Z,21.37
2023-02-04T06:46:20.425Z,25.83
2023-02-04T06:48:48.050Z,23.90
2023-02-04T06:51:15.544Z,26.43
2023-02-04T06:53:44.301Z,20.83
2023-02-04T06:56:12.157Z,25.73
2023-02-04T06:58:39.897Z,25.23
2023-02-04T07:01:07.755Z,17.20
2023-02-04T07:03:35.377Z,28.80
2023-02-04T07:06:02.651Z,21.50
2023-02-04T07:08:30.305Z,16.33
2023-02-04T07:10:57.547Z,18.07
2023-02-04T07:13:25.344Z,13.33
2023-02-04T07:15:53.180Z,14.33
2023-02-04T07:18:20.909Z,16.87
2023-02-04T07:20:48.297Z,22.63
2023-02-04T07:23:15.823Z,20.53
2023-02-04T07:25:44.291Z,23.90
2023-02-04T07:28:12.723Z,18.70
2023-02-04T07:30:40.106Z,17.07
2023-02-04T07:33:07.724Z,16.87
2023-02-04T07:35:35.002Z,15.83
2023-02-04T07:38:02.549Z,16.27
2023-02-04T07:40:30.135Z,14.67
2023-02-04T07:42:58.377Z,14.17
2023-02-04T07:45:25.676Z,14.33
2023-02-04T07:47:53.318Z,15.07
2023-02-04T07:50:21.422Z,14.80
2023-02-04T07:52:49.029Z,11.70
2023-02-04T07:55:16.469Z,11.80
2023-02-04T07:57:44.133Z,20.27
2023-02-04T08:00:14.230Z,24.07
2023-02-04T08:02:42.131Z,14.97
2023-02-04T08:05:10.479Z,13.77
2023-02-04T08:07:38.197Z,11.33
2023-02-04T08:10:07.454Z,10.30
2023-02-04T08:12:35.078Z,10.40
2023-02-04T08:15:02.347Z,10.60
2023-02-04T08:17:30.013Z,9.47
2023-02-04T08:19:57.770Z,11.33
2023-02-04T08:22:25.380Z,14.67
2023-02-04T08:24:52.585Z,14.07
2023-02-04T08:27:20.289Z,17.27
2023-02-04T08:29:47.515Z,21.60
2023-02-04T08:32:15.130Z,22.90
2023-02-04T08:34:42.491Z,19.80
2023-02-04T08:37:10.172Z,19.90
2023-02-04T08:39:38.556Z,20.63
2023-02-04T08:42:06.218Z,22.73
2023-02-04T08:44:33.519Z,21.63
2023-02-04T08:47:01.183Z,27.27
2023-02-04T08:49:28.463Z,32.83
2023-02-04T08:51:56.046Z,27.33
2023-02-04T08:54:23.359Z,17.93
2023-02-04T08:56:50.927Z,25.27
2023-02-04T08:59:18.163Z,16.93
2023-02-04T09:01:51.007Z,19.00
2023-02-04T09:04:23.925Z,16.55
2023-02-04T09:06:52.246Z,17.48
2023-02-04T09:09:22.266Z,14.98
2023-02-04T09:11:50.292Z,14.25
2023-02-04T09:14:17.601Z,13.85
2023-02-04T09:16:45.302Z,14.30
2023-02-04T09:19:16.325Z,11.50
2023-02-04T09:21:43.913Z,14.65
2023-02-04T09:24:11.153Z,16.50
2023-02-04T09:26:38.707Z,15.98
2023-02-04T09:29:06.002Z,22.70
2023-02-04T09:31:33.642Z,16.27
2023-02-04T09:34:01.046Z,13.30
2023-02-04T09:36:30.687Z,14.35
2023-02-04T09:38:58.062Z,14.18
2023-02-04T09:41:25.726Z,15.40
2023-02-04T09:43:53.086Z,18.92
2023-02-04T09:46:25.572Z,14.88
2023-02-04T09:48:52.872Z,12.18
2023-02-04T09:51:27.145Z,9.52
2023-02-04T09:54:20.260Z,8.38
2023-02-04T09:56:48.802Z,16.02
2023-02-04T09:59:20.373Z,16.52
2023-02-04T10:02:14.001Z,13.82
2023-02-04T10:04:41.293Z,15.27
2023-02-04T10:07:13.555Z,13.30
2023-02-04T10:09:41.348Z,12.27
2023-02-04T10:12:09.011Z,12.10
2023-02-04T10:14:36.323Z,16.08
2023-02-04T10:17:03.981Z,11.98
2023-02-04T10:19:31.486Z,13.63
2023-02-04T10:21:59.986Z,15.35
2023-02-04T10:24:30.665Z,15.32
2023-02-04T10:27:10.820Z,12.80
2023-02-04T10:29:38.649Z,15.95
2023-02-04T10:32:07.409Z,9.38
2023-02-04T10:34:39.996Z,11.00
2023-02-04T10:37:21.455Z,11.32
2023-02-04T10:39:50.002Z,10.43
2023-02-04T10:42:30.387Z,9.07
2023-02-04T10:44:59.168Z,16.73
2023-02-04T10:47:31.619Z,21.70
2023-02-04T10:50:17.540Z,16.17
2023-02-04T10:52:55.482Z,13.75
2023-02-04T10:55:24.336Z,15.95
2023-02-04T10:57:53.422Z,17.85
2023-02-04T11:00:24.343Z,9.32
2023-02-04T11:03:04.298Z,14.20
2023-02-04T11:05:35.560Z,14.13
2023-02-04T11:08:18.477Z,10.32
2023-02-04T11:10:46.010Z,8.82
2023-02-04T11:13:38.944Z,11.82
2023-02-04T11:16:35.737Z,16.85
2023-02-04T11:19:12.946Z,16.67
2023-02-04T11:21:40.180Z,11.60
2023-02-04T11:24:14.007Z,8.98
2023-02-04T11:26:45.276Z,12.82
2023-02-04T11:29:34.920Z,7.47
2023-02-04T11:32:33.030Z,6.10
2023-02-04T11:35:29.212Z,7.57
2023-02-04T11:37:57.654Z,12.25
2023-02-04T11:40:38.077Z,14.50
2023-02-04T11:43:16.925Z,12.88
2023-02-04T11:45:44.984Z,10.77
2023-02-04T11:48:21.429Z,10.02
2023-02-04T11:50:58.091Z,8.43
2023-02-04T11:53:33.580Z,8.32
2023-02-04T11:56:01.857Z,8.13
2023-02-04T11:58:31.622Z,7.78
2023-02-04T12:01:00.312Z,10.00
2023-02-04T12:03:30.666Z,13.98
2023-02-04T12:05:59.380Z,8.15
2023-02-04T12:08:34.226Z,7.78
2023-02-04T12:11:03.558Z,8.02
2023-02-04T12:13:32.377Z,7.75
2023-02-04T12:16:07.085Z,7.25
2023-02-04T12:18:35.366Z,8.43
2023-02-04T12:21:04.503Z,8.95
2023-02-04T12:23:33.569Z,9.30
2023-02-04T12:26:01.651Z,8.38
2023-02-04T12:28:29.447Z,14.00
2023-02-04T12:30:57.276Z,12.13
2023-02-04T12:33:24.824Z,9.77
2023-02-04T12:35:53.025Z,21.58
2023-02-04T12:38:20.904Z,16.75
2023-02-04T12:40:48.557Z,11.18
2023-02-04T12:43:15.940Z,15.55
2023-02-04T12:45:46.419Z,16.88
2023-02-04T12:48:14.283Z,13.27
2023-02-04T12:50:42.239Z,13.43
2023-02-04T12:53:09.937Z,14.52
2023-02-04T12:55:37.599Z,16.75
2023-02-04T12:58:05.021Z,19.40
2023-02-04T13:00:32.710Z,17.95
2023-02-04T13:03:00.338Z,16.77
2023-02-04T13:05:28.711Z,16.70
2023-02-04T13:07:56.108Z,15.32
2023-02-04T13:10:24.298Z,16.80
2023-02-04T13:12:51.938Z,17.77
2023-02-04T13:15:19.916Z,17.02
2023-02-04T13:17:47.319Z,14.32
2023-02-04T13:20:15.107Z,11.60
2023-02-04T13:22:42.692Z,13.85
2023-02-04T13:25:14.833Z,14.38
2023-02-04T13:27:42.174Z,14.10
2023-02-04T13:30:14.017Z,16.67
2023-02-04T13:32:42.012Z,15.80
2023-02-04T13:35:09.999Z,13.40
2023-02-04T13:37:38.393Z,9.80
2023-02-04T13:40:08.087Z,11.73
2023-02-04T13:42:35.974Z,7.80
2023-02-04T13:45:05.119Z,9.90
2023-02-04T13:47:32.416Z,14.07
2023-02-04T13:50:00.563Z,10.45
2023-02-04T13:52:27.957Z,6.68
2023-02-04T13:54:55.945Z,9.13
2023-02-04T13:57:23.305Z,8.75
2023-02-04T13:59:50.911Z,9.55
2023-02-04T14:02:18.257Z,11.80
2023-02-04T14:04:45.884Z,16.73
2023-02-04T14:07:13.165Z,11.27
2023-02-04T14:09:40.762Z,12.43
2023-02-04T14:12:08.918Z,9.70
2023-02-04T14:14:36.616Z,9.20
2023-02-04T14:17:04.509Z,8.43
2023-02-04T14:19:32.283Z,9.68
2023-02-04T14:21:59.677Z,13.27
2023-02-04T14:24:27.290Z,18.80
2023-02-04T14:26:56.260Z,11.77
2023-02-04T14:29:23.962Z,15.25
2023-02-04T14:31:51.396Z,11.95
2023-02-04T14:34:19.116Z,11.40
2023-02-04T14:36:46.492Z,21.38
2023-02-04T14:39:14.151Z,19.02
2023-02-04T14:41:41.488Z,12.43
2023-02-04T14:44:09.208Z,11.50
2023-02-04T14:46:36.923Z,17.23
2023-02-04T14:49:04.637Z,15.60
2023-02-04T14:51:31.994Z,14.38
2023-02-04T14:53:59.609Z,10.32
2023-02-04T14:56:27.328Z,14.45
2023-02-04T14:58:54.980Z,18.27
2023-02-04T15:01:22.467Z,20.52
2023-02-04T15:03:51.020Z,15.13
2023-02-04T15:06:18.329Z,20.83
2023-02-04T15:08:46.116Z,16.65
2023-02-04T15:11:13.547Z,26.77
2023-02-04T15:13:41.219Z,27.65
2023-02-04T15:16:08.484Z,24.70
2023-02-04T15:18:36.239Z,27.85
2023-02-04T15:21:03.770Z,26.13
2023-02-04T15:23:31.407Z,25.13
2023-02-04T15:25:58.765Z,20.42
2023-02-04T15:28:27.943Z,19.92
2023-02-04T15:30:55.876Z,28.60
2023-02-04T15:33:23.785Z,30.65
2023-02-04T15:35:51.270Z,30.33
2023-02-04T15:38:19.094Z,25.57
2023-02-04T15:40:46.465Z,26.67
2023-02-04T15:43:14.090Z,29.40
2023-02-04T15:45:43.908Z,30.30
2023-02-04T15:48:12.030Z,29.03
2023-02-04T15:50:40.178Z,26.63
2023-02-04T15:53:07.836Z,27.33
2023-02-04T15:55:35.954Z,28.80
2023-02-04T15:58:03.624Z,33.37
2023-02-04T16:00:31.291Z,42.40
2023-02-04T16:02:58.989Z,35.43
2023-02-04T16:05:26.522Z,38.40
2023-02-04T16:07:54.097Z,40.00
2023-02-04T16:10:22.201Z,36.10
2023-02-04T16:12:51.329Z,38.77
2023-02-04T16:15:18.996Z,48.37
2023-02-04T16:17:46.644Z,37.97
2023-02-04T16:20:14.116Z,22.17
2023-02-04T16:22:41.829Z,27.30
2023-02-04T16:25:09.742Z,21.53
2023-02-04T16:27:37.380Z,16.37
2023-02-04T16:30:05.320Z,18.63
2023-02-04T16:32:37.196Z,22.23
2023-02-04T16:35:04.886Z,24.40
2023-02-04T16:37:32.797Z,23.87
2023-02-04T16:40:00.257Z,23.53
2023-02-04T16:42:31.193Z,20.73
2023-02-04T16:44:59.014Z,22.60
2023-02-04T16:47:26.683Z,22.73
2023-02-04T16:49:59.109Z,18.17
2023-02-04T16:52:28.721Z,22.30
2023-02-04T16:54:56.144Z,23.47
2023-02-04T16:57:24.398Z,20.03
2023-02-04T16:59:51.746Z,21.90
2023-02-04T17:02:19.370Z,21.17
2023-02-04T17:04:46.817Z,24.67
2023-02-04T17:07:14.530Z,18.70
2023-02-04T17:09:42.443Z,18.77
2023-02-04T17:12:10.083Z,18.27
2023-02-04T17:14:38.994Z,17.63
2023-02-04T17:17:06.842Z,16.07
2023-02-04T17:19:34.241Z,21.77
2023-02-04T17:22:01.909Z,24.63
2023-02-04T17:24:29.259Z,20.63
2023-02-04T17:26:56.925Z,21.13
2023-02-04T17:29:25.069Z,20.63
2023-02-04T17:31:53.102Z,25.03
2023-02-04T17:34:20.544Z,27.53
2023-02-04T17:36:48.193Z,30.07
2023-02-04T17:39:15.550Z,34.37
2023-02-04T17:41:43.111Z,31.73
2023-02-04T17:44:16.998Z,28.87
2023-02-04T17:46:44.734Z,36.20
2023-02-04T17:49:12.167Z,40.00
2023-02-04T17:51:39.749Z,30.20
2023-02-04T17:54:07.098Z,32.87
2023-02-04T17:56:35.291Z,36.63
2023-02-04T17:59:02.732Z,33.40
2023-02-04T18:01:30.388Z,23.77
2023-02-04T18:03:58.856Z,24.83
2023-02-04T18:06:29.218Z,24.53
2023-02-04T18:09:02.169Z,26.17
2023-02-04T18:11:37.812Z,24.43
2023-02-04T18:14:24.582Z,25.50
2023-02-04T18:16:57.617Z,24.03
2023-02-04T18:19:37.170Z,22.40
2023-02-04T18:22:16.821Z,20.57
2023-02-04T18:24:48.960Z,21.80
2023-02-04T18:27:24.382Z,21.67
2023-02-04T18:29:55.925Z,20.13
2023-02-04T18:32:37.850Z,21.27
2023-02-04T18:35:40.732Z,18.20
2023-02-04T18:38:39.595Z,24.73
2023-02-04T18:41:29.285Z,34.73
2023-02-04T18:44:31.966Z,25.73
2023-02-04T18:47:24.905Z,23.53
2023-02-04T18:49:52.568Z,26.83
2023-02-04T18:52:22.384Z,38.17
2023-02-04T18:54:56.499Z,37.10
2023-02-04T18:57:39.068Z,24.93
2023-02-04T19:00:25.451Z,36.83
2023-02-04T19:03:00.358Z,31.70
2023-02-04T19:05:49.599Z,31.80
2023-02-04T19:08:46.256Z,27.93
2023-02-04T19:11:38.631Z,19.93
2023-02-04T19:14:40.708Z,35.27
2023-02-04T19:17:14.572Z,30.97
2023-02-04T19:20:06.271Z,35.47
2023-02-04T19:22:51.282Z,25.77
2023-02-04T19:25:29.379Z,22.53
2023-02-04T19:28:00.830Z,18.83
2023-02-04T19:30:28.286Z,16.27
2023-02-04T19:33:01.727Z,18.57
2023-02-04T19:35:40.948Z,22.53
2023-02-04T19:38:46.594Z,21.90
2023-02-04T19:41:51.181Z,28.17
2023-02-04T19:44:52.034Z,17.93
2023-02-04T19:47:44.907Z,19.63
2023-02-04T19:50:32.370Z,17.83
2023-02-04T19:53:03.370Z,19.17
2023-02-04T19:55:41.924Z,32.10
2023-02-04T19:58:25.355Z,25.70
2023-02-04T20:01:09.632Z,17.73
2023-02-04T20:03:42.537Z,28.30
2023-02-04T20:06:10.121Z,19.67
2023-02-04T20:08:55.699Z,19.87
2023-02-04T20:11:35.122Z,23.53
2023-02-04T20:14:26.672Z,20.10
2023-02-04T20:17:10.526Z,21.10
2023-02-04T20:19:38.192Z,26.47
2023-02-04T20:22:17.962Z,29.87
2023-02-04T20:24:53.170Z,19.93
2023-02-04T20:27:22.341Z,21.17
2023-02-04T20:29:58.702Z,21.23
2023-02-04T20:32:30.250Z,24.63
2023-02-04T20:35:25.365Z,14.37
2023-02-04T20:37:59.538Z,16.07
2023-02-04T20:40:26.811Z,11.57
2023-02-04T20:43:11.491Z,16.63
2023-02-04T20:45:55.451Z,15.70
2023-02-04T20:48:41.033Z,19.00
2023-02-04T20:51:27.098Z,15.93
2023-02-04T20:53:58.412Z,20.87
2023-02-04T20:56:35.858Z,16.80
2023-02-04T20:59:12.580Z,15.83
2023-02-04T21:01:40.821Z,15.37
2023-02-04T21:04:38.739Z,13.77
2023-02-04T21:07:19.341Z,14.10
2023-02-04T21:09:48.378Z,15.43
2023-02-04T21:12:16.319Z,14.33
2023-02-04T21:14:44.052Z,11.97
2023-02-04T21:17:11.410Z,14.43
2023-02-04T21:19:39.022Z,11.73
2023-02-04T21:22:06.518Z,16.67
2023-02-04T21:24:34.196Z,16.67
2023-02-04T21:27:01.842Z,16.33
2023-02-04T21:29:29.675Z,18.30
2023-02-04T21:31:57.139Z,15.57
2023-02-04T21:34:24.789Z,17.43
2023-02-04T21:36:52.235Z,14.17
2023-02-04T21:39:20.908Z,16.47
2023-02-04T21:42:08.222Z,14.53
2023-02-04T21:44:38.287Z,19.27
2023-02-04T21:47:05.805Z,16.67
2023-02-04T21:49:33.487Z,14.70
2023-02-04T21:52:00.826Z,23.70
2023-02-04T21:54:28.455Z,17.50
2023-02-04T21:56:55.836Z,18.97
2023-02-04T21:59:25.329Z,19.37
2023-02-04T22:01:52.793Z,17.30
2023-02-04T22:04:20.405Z,19.27
2023-02-04T22:06:47.738Z,14.60
2023-02-04T22:09:15.989Z,17.00
2023-02-04T22:11:43.469Z,16.90
2023-02-04T22:14:11.079Z,12.17
2023-02-04T22:16:38.377Z,11.73
2023-02-04T22:19:06.003Z,14.67
2023-02-04T22:21:34.980Z,15.03
2023-02-04T22:24:02.561Z,15.27
2023-02-04T22:26:29.934Z,12.30
2023-02-04T22:28:57.669Z,16.90
2023-02-04T22:31:25.329Z,16.73
2023-02-04T22:33:52.887Z,12.03
2023-02-04T22:36:20.147Z,15.10
2023-02-04T22:38:47.816Z,10.27
2023-02-04T22:41:15.126Z,11.20
2023-02-04T22:43:42.740Z,13.37
2023-02-04T22:46:10.135Z,9.27
2023-02-04T22:48:37.731Z,13.40
2023-02-04T22:51:05.061Z,13.23
2023-02-04T22:53:32.671Z,13.77
2023-02-04T22:55:59.944Z,15.27
2023-02-04T22:58:27.558Z,13.63
2023-02-04T23:00:55.212Z,17.23
2023-02-04T23:03:22.879Z,16.33
2023-02-04T23:05:50.356Z,17.00
2023-02-04T23:08:18.132Z,15.47
2023-02-04T23:10:46.738Z,17.50
2023-02-04T23:13:15.032Z,17.43
2023-02-04T23:15:43.546Z,20.17
2023-02-04T23:18:11.630Z,21.27
2023-02-04T23:20:41.112Z,21.37
2023-02-04T23:23:17.348Z,16.73
2023-02-04T23:25:48.451Z,25.03
2023-02-04T23:28:16.858Z,14.80
2023-02-04T23:30:44.255Z,13.43
2023-02-04T23:33:12.003Z,28.57
2023-02-04T23:35:39.327Z,29.93
2023-02-04T23:38:06.922Z,20.13
2023-02-04T23:40:34.236Z,28.63
2023-02-04T23:43:01.828Z,27.43
2023-02-04T23:45:29.231Z,28.67
2023-02-04T23:47:56.854Z,20.53
2023-02-04T23:50:24.458Z,21.20
2023-02-04T23:52:52.077Z,18.93
2023-02-04T23:55:19.424Z,18.80
2023-02-04T23:57:50.424Z,22.37
